createdAt,value
2015-09-15T00:00:13.429Z,95219
2015-09-15T00:00:31.198Z,95222
2015-09-15T00:00:49.745Z,95211
2015-09-15T00:01:08.291Z,95208
2015-09-15T00:01:29.996Z,95211
2015-09-15T00:01:48.386Z,95216
2015-09-15T00:02:07.027Z,95205
2015-09-15T00:02:25.591Z,95220
2015-09-15T00:02:43.998Z,95217
2015-09-15T00:03:02.498Z,95214
2015-09-15T00:03:21.357Z,95217
2015-09-15T00:03:39.781Z,95212
2015-09-15T00:03:58.515Z,95212
2015-09-15T00:04:17.156Z,95212
2015-09-15T00:04:35.721Z,95217
2015-09-15T00:04:54.206Z,95212
2015-09-15T00:05:12.628Z,95215
2015-09-15T00:05:30.988Z,95217
2015-09-15T00:05:49.504Z,95210
2015-09-15T00:06:07.957Z,95210
2015-09-15T00:06:26.490Z,95210
2015-09-15T00:06:44.849Z,95220
2015-09-15T00:07:03.224Z,95224
2015-09-15T00:07:21.693Z,95216
2015-09-15T00:07:40.195Z,95216
2015-09-15T00:07:58.601Z,95215
2015-09-15T00:08:17.164Z,95218
2015-09-15T00:08:35.588Z,95224
2015-09-15T00:08:53.963Z,95224
2015-09-15T00:09:12.431Z,95224
2015-09-15T00:09:30.871Z,95227
2015-09-15T00:09:49.230Z,95225
2015-09-15T00:10:07.637Z,95225
2015-09-15T00:10:26.105Z,95225
2015-09-15T00:10:44.482Z,95228
2015-09-15T00:11:02.920Z,95230
2015-09-15T00:11:21.498Z,95243
2015-09-15T00:11:39.859Z,95238
2015-09-15T00:11:58.219Z,95232
2015-09-15T00:12:16.672Z,95240
2015-09-15T00:12:34.955Z,95229
2015-09-15T00:12:53.377Z,95234
2015-09-15T00:13:12.158Z,95240
2015-09-15T00:13:30.643Z,95232
2015-09-15T00:13:49.020Z,95231
2015-09-15T00:14:07.473Z,95231
2015-09-15T00:14:26.082Z,95231
2015-09-15T00:14:44.584Z,95229
2015-09-15T00:15:03.240Z,95229
2015-09-15T00:15:21.662Z,95235
2015-09-15T00:15:40.195Z,95226
2015-09-15T00:15:58.867Z,95232
2015-09-15T00:16:17.367Z,95238
2015-09-15T00:16:35.727Z,95226
2015-09-15T00:16:54.135Z,95232
2015-09-15T00:17:12.604Z,95221
2015-09-15T00:17:30.979Z,95234
2015-09-15T00:17:49.418Z,95223
2015-09-15T00:18:07.965Z,95221
2015-09-15T00:18:26.371Z,95232
2015-09-15T00:18:44.795Z,95240
2015-09-15T00:19:03.155Z,95226
2015-09-15T00:19:21.670Z,95231
2015-09-15T00:19:40.045Z,95237
2015-09-15T00:19:58.624Z,95226
2015-09-15T00:20:17.124Z,95229
2015-09-15T00:20:35.515Z,95232
2015-09-15T00:20:54.159Z,95237
2015-09-15T00:21:12.549Z,95237
2015-09-15T00:21:31.049Z,95226
2015-09-15T00:21:49.582Z,95235
2015-09-15T00:22:07.989Z,95221
2015-09-15T00:22:26.442Z,95224
2015-09-15T00:22:44.911Z,95213
2015-09-15T00:23:03.163Z,95220
2015-09-15T00:23:21.538Z,95218
2015-09-15T00:23:39.897Z,95224
2015-09-15T00:23:58.290Z,95224
2015-09-15T00:24:16.774Z,95212
2015-09-15T00:24:35.149Z,95220
2015-09-15T00:24:53.775Z,95226
2015-09-15T00:25:12.150Z,95220
2015-09-15T00:25:30.509Z,95211
2015-09-15T00:25:48.931Z,95225
2015-09-15T00:26:07.543Z,95217
2015-09-15T00:26:25.980Z,95234
2015-09-15T00:26:44.386Z,95220
2015-09-15T00:27:02.874Z,95229
2015-09-15T00:27:21.311Z,95231
2015-09-15T00:27:39.717Z,95234
2015-09-15T00:27:58.141Z,95234
2015-09-15T00:28:16.704Z,95226
2015-09-15T00:28:35.094Z,95237
2015-09-15T00:28:53.516Z,95232
2015-09-15T00:29:11.721Z,95243
2015-09-15T00:29:30.206Z,95243
2015-09-15T00:29:48.550Z,95237
2015-09-15T00:30:06.973Z,95229
2015-09-15T00:30:25.489Z,95244
2015-09-15T00:30:43.927Z,95238
2015-09-15T00:31:02.366Z,95235
2015-09-15T00:31:20.741Z,95240
2015-09-15T00:31:39.179Z,95232
2015-09-15T00:31:57.632Z,95232
2015-09-15T00:32:15.992Z,95225
2015-09-15T00:32:34.383Z,95230
2015-09-15T00:32:52.820Z,95218
2015-09-15T00:33:11.291Z,95228
2015-09-15T00:33:29.869Z,95225
2015-09-15T00:33:48.478Z,95228
2015-09-15T00:34:06.871Z,95222
2015-09-15T00:34:25.230Z,95216
2015-09-15T00:34:43.777Z,95230
2015-09-15T00:35:02.215Z,95222
2015-09-15T00:35:20.780Z,95219
2015-09-15T00:35:39.280Z,95222
2015-09-15T00:35:57.702Z,95222
2015-09-15T00:36:16.266Z,95230
2015-09-15T00:36:34.688Z,95228
2015-09-15T00:36:53.250Z,95222
2015-09-15T00:37:11.611Z,95227
2015-09-15T00:37:30.080Z,95216
2015-09-15T00:37:48.455Z,95225
2015-09-15T00:38:07.065Z,95216
2015-09-15T00:38:25.754Z,95219
2015-09-15T00:38:44.113Z,95214
2015-09-15T00:39:02.207Z,95216
2015-09-15T00:39:20.601Z,95227
2015-09-15T00:39:39.085Z,95227
2015-09-15T00:39:57.741Z,95221
2015-09-15T00:40:16.211Z,95218
2015-09-15T00:40:34.633Z,95221
2015-09-15T00:40:53.102Z,95222
2015-09-15T00:41:11.539Z,95219
2015-09-15T00:41:30.119Z,95224
2015-09-15T00:41:48.807Z,95216
2015-09-15T00:42:07.166Z,95222
2015-09-15T00:42:25.637Z,95214
2015-09-15T00:42:44.200Z,95214
2015-09-15T00:43:02.840Z,95220
2015-09-15T00:43:21.217Z,95225
2015-09-15T00:43:39.811Z,95220
2015-09-15T00:43:58.217Z,95217
2015-09-15T00:44:16.734Z,95217
2015-09-15T00:44:35.218Z,95214
2015-09-15T00:44:53.437Z,95225
2015-09-15T00:45:11.890Z,95222
2015-09-15T00:45:30.501Z,95225
2015-09-15T00:45:49.080Z,95225
2015-09-15T00:46:07.705Z,95222
2015-09-15T00:46:26.254Z,95225
2015-09-15T00:46:44.661Z,95224
2015-09-15T00:47:03.004Z,95227
2015-09-15T00:47:21.553Z,95220
2015-09-15T00:47:40.116Z,95220
2015-09-15T00:47:58.881Z,95220
2015-09-15T00:48:17.256Z,95214
2015-09-15T00:48:35.837Z,95219
2015-09-15T00:48:54.212Z,95224
2015-09-15T00:49:12.821Z,95230
2015-09-15T00:49:31.775Z,95216
2015-09-15T00:49:50.384Z,95213
2015-09-15T00:50:08.869Z,95224
2015-09-15T00:50:27.372Z,95221
2015-09-15T00:50:45.997Z,95229
2015-09-15T00:51:04.419Z,95215
2015-09-15T00:51:22.872Z,95221
2015-09-15T00:51:41.343Z,95221
2015-09-15T00:51:59.811Z,95227
2015-09-15T00:52:18.436Z,95232
2015-09-15T00:52:36.969Z,95232
2015-09-15T00:52:55.422Z,95232
2015-09-15T00:53:13.875Z,95232
2015-09-15T00:53:32.455Z,95243
2015-09-15T00:53:50.892Z,95232
2015-09-15T00:54:09.314Z,95221
2015-09-15T00:54:27.955Z,95226
2015-09-15T00:54:46.473Z,95221
2015-09-15T00:55:05.019Z,95230
2015-09-15T00:55:23.457Z,95226
2015-09-15T00:55:42.522Z,95225
2015-09-15T00:56:00.991Z,95236
2015-09-15T00:56:19.382Z,95234
2015-09-15T00:56:37.790Z,95225
2015-09-15T00:56:56.243Z,95225
2015-09-15T00:57:14.790Z,95231
2015-09-15T00:57:33.463Z,95225
2015-09-15T00:57:51.947Z,95225
2015-09-15T00:58:10.385Z,95225
2015-09-15T00:58:29.229Z,95231
2015-09-15T00:58:47.746Z,95228
2015-09-15T00:59:06.387Z,95228
2015-09-15T00:59:24.871Z,95228
2015-09-15T00:59:42.905Z,95230
2015-09-15T01:00:01.296Z,95228
2015-09-15T01:00:19.921Z,95233
2015-09-15T01:00:38.453Z,95227
2015-09-15T01:00:57.047Z,95233
2015-09-15T01:01:15.422Z,95232
2015-09-15T01:01:33.969Z,95232
2015-09-15T01:01:52.643Z,95241
2015-09-15T01:02:11.002Z,95230
2015-09-15T01:02:29.471Z,95236
2015-09-15T01:02:47.910Z,95241
2015-09-15T01:03:06.285Z,95241
2015-09-15T01:03:24.676Z,95241
2015-09-15T01:03:43.272Z,95230
2015-09-15T01:04:01.756Z,95244
2015-09-15T01:04:20.084Z,95247
2015-09-15T01:04:38.459Z,95244
2015-09-15T01:04:56.836Z,95247
2015-09-15T01:05:15.227Z,95252
2015-09-15T01:05:33.602Z,95252
2015-09-15T01:05:52.182Z,95243
2015-09-15T01:06:10.541Z,95246
2015-09-15T01:06:29.120Z,95238
2015-09-15T01:06:47.590Z,95241
2015-09-15T01:07:05.997Z,95240
2015-09-15T01:07:24.450Z,95240
2015-09-15T01:07:42.825Z,95249
2015-09-15T01:08:01.436Z,95243
2015-09-15T01:08:19.983Z,95237
2015-09-15T01:08:38.342Z,95242
2015-09-15T01:08:56.829Z,95234
2015-09-15T01:09:15.204Z,95237
2015-09-15T01:09:33.563Z,95245
2015-09-15T01:09:52.128Z,95234
2015-09-15T01:10:10.674Z,95243
2015-09-15T01:10:29.049Z,95238
2015-09-15T01:10:47.581Z,95249
2015-09-15T01:11:06.145Z,95246
2015-09-15T01:11:24.676Z,95249
2015-09-15T01:11:43.145Z,95246
2015-09-15T01:12:01.507Z,95249
2015-09-15T01:12:19.866Z,95249
2015-09-15T01:12:38.272Z,95238
2015-09-15T01:12:56.634Z,95235
2015-09-15T01:13:15.196Z,95243
2015-09-15T01:13:33.712Z,95243
2015-09-15T01:13:52.291Z,95240
2015-09-15T01:14:10.728Z,95243
2015-09-15T01:14:29.213Z,95245
2015-09-15T01:14:47.963Z,95242
2015-09-15T01:15:06.700Z,95242
2015-09-15T01:15:25.138Z,95242
2015-09-15T01:15:43.731Z,95234
2015-09-15T01:16:02.467Z,95237
2015-09-15T01:16:20.826Z,95242
2015-09-15T01:16:39.389Z,95237
2015-09-15T01:16:58.078Z,95239
2015-09-15T01:17:16.625Z,95236
2015-09-15T01:17:34.984Z,95239
2015-09-15T01:17:53.453Z,95241
2015-09-15T01:18:11.830Z,95241
2015-09-15T01:18:30.283Z,95241
2015-09-15T01:18:48.643Z,95236
2015-09-15T01:19:07.191Z,95245
2015-09-15T01:19:25.566Z,95244
2015-09-15T01:19:43.973Z,95236
2015-09-15T01:20:02.616Z,95239
2015-09-15T01:20:21.054Z,95236
2015-09-15T01:20:39.429Z,95228
2015-09-15T01:20:57.898Z,95236
2015-09-15T01:21:16.259Z,95236
2015-09-15T01:21:35.290Z,95241
2015-09-15T01:21:53.884Z,95230
2015-09-15T01:22:12.244Z,95227
2015-09-15T01:22:30.635Z,95228
2015-09-15T01:22:49.072Z,95239
2015-09-15T01:23:07.435Z,95233
2015-09-15T01:23:26.060Z,95241
2015-09-15T01:23:44.622Z,95241
2015-09-15T01:24:03.060Z,95233
2015-09-15T01:24:21.592Z,95241
2015-09-15T01:24:40.264Z,95236
2015-09-15T01:24:58.905Z,95236
2015-09-15T01:25:17.282Z,95242
2015-09-15T01:25:35.828Z,95239
2015-09-15T01:25:54.235Z,95239
2015-09-15T01:26:12.721Z,95241
2015-09-15T01:26:31.080Z,95238
2015-09-15T01:26:49.440Z,95236
2015-09-15T01:27:08.020Z,95240
2015-09-15T01:27:26.614Z,95234
2015-09-15T01:27:45.129Z,95248
2015-09-15T01:28:03.614Z,95240
2015-09-15T01:28:22.178Z,95248
2015-09-15T01:28:40.600Z,95242
2015-09-15T01:28:59.131Z,95250
2015-09-15T01:29:17.555Z,95250
2015-09-15T01:29:36.133Z,95250
2015-09-15T01:29:54.790Z,95250
2015-09-15T01:30:13.354Z,95244
2015-09-15T01:30:31.776Z,95247
2015-09-15T01:30:50.260Z,95252
2015-09-15T01:31:08.885Z,95258
2015-09-15T01:31:27.403Z,95252
2015-09-15T01:31:45.887Z,95255
2015-09-15T01:32:04.340Z,95252
2015-09-15T01:32:22.889Z,95252
2015-09-15T01:32:41.264Z,95249
2015-09-15T01:32:59.686Z,95258
2015-09-15T01:33:18.079Z,95253
2015-09-15T01:33:36.485Z,95245
2015-09-15T01:33:55.001Z,95239
2015-09-15T01:34:13.579Z,95250
2015-09-15T01:34:32.189Z,95247
2015-09-15T01:34:50.830Z,95252
2015-09-15T01:35:09.377Z,95255
2015-09-15T01:35:27.738Z,95249
2015-09-15T01:35:46.379Z,95252
2015-09-15T01:36:04.738Z,95252
2015-09-15T01:36:23.287Z,95250
2015-09-15T01:36:41.787Z,95247
2015-09-15T01:37:00.240Z,95252
2015-09-15T01:37:18.849Z,95250
2015-09-15T01:37:37.337Z,95249
2015-09-15T01:37:55.837Z,95250
2015-09-15T01:38:14.274Z,95253
2015-09-15T01:38:32.839Z,95250
2015-09-15T01:38:51.308Z,95255
2015-09-15T01:39:09.745Z,95263
2015-09-15T01:39:28.310Z,95247
2015-09-15T01:39:46.731Z,95249
2015-09-15T01:40:05.310Z,95252
2015-09-15T01:40:23.733Z,95261
2015-09-15T01:40:42.108Z,95253
2015-09-15T01:41:00.827Z,95261
2015-09-15T01:41:19.218Z,95255
2015-09-15T01:41:37.767Z,95252
2015-09-15T01:41:56.189Z,95241
2015-09-15T01:42:14.798Z,95242
2015-09-15T01:42:33.361Z,95245
2015-09-15T01:42:51.783Z,95239
2015-09-15T01:43:10.236Z,95242
2015-09-15T01:43:28.614Z,95248
2015-09-15T01:43:47.114Z,95234
2015-09-15T01:44:05.599Z,95237
2015-09-15T01:44:24.099Z,95237
2015-09-15T01:44:42.475Z,95237
2015-09-15T01:45:01.006Z,95229
2015-09-15T01:45:19.459Z,95234
2015-09-15T01:45:37.883Z,95237
2015-09-15T01:45:56.305Z,95234
2015-09-15T01:46:14.758Z,95217
2015-09-15T01:46:33.182Z,95228
2015-09-15T01:46:51.916Z,95228
2015-09-15T01:47:10.573Z,95228
2015-09-15T01:47:29.387Z,95239
2015-09-15T01:47:47.793Z,95231
2015-09-15T01:48:06.371Z,95239
2015-09-15T01:48:24.825Z,95233
2015-09-15T01:48:43.327Z,95233
2015-09-15T01:49:01.748Z,95233
2015-09-15T01:49:20.373Z,95230
2015-09-15T01:49:38.735Z,95235
2015-09-15T01:49:57.438Z,95236
2015-09-15T01:50:16.110Z,95224
2015-09-15T01:50:34.612Z,95228
2015-09-15T01:50:53.174Z,95231
2015-09-15T01:51:12.116Z,95225
2015-09-15T01:51:30.569Z,95233
2015-09-15T01:51:48.852Z,95236
2015-09-15T01:52:07.258Z,95231
2015-09-15T01:52:25.915Z,95228
2015-09-15T01:52:44.557Z,95219
2015-09-15T01:53:03.057Z,95225
2015-09-15T01:53:21.667Z,95233
2015-09-15T01:53:40.059Z,95227
2015-09-15T01:53:58.575Z,95224
2015-09-15T01:54:17.044Z,95220
2015-09-15T01:54:35.481Z,95222
2015-09-15T01:54:53.905Z,95225
2015-09-15T01:55:12.389Z,95225
2015-09-15T01:55:30.889Z,95228
2015-09-15T01:55:49.313Z,95231
2015-09-15T01:56:07.735Z,95231
2015-09-15T01:56:26.110Z,95227
2015-09-15T01:56:44.612Z,95227
2015-09-15T01:57:03.096Z,95225
2015-09-15T01:57:21.706Z,95220
2015-09-15T01:57:40.081Z,95225
2015-09-15T01:57:58.880Z,95225
2015-09-15T01:58:17.286Z,95211
2015-09-15T01:58:35.895Z,95214
2015-09-15T01:58:54.585Z,95225
2015-09-15T01:59:13.085Z,95231
2015-09-15T01:59:31.460Z,95225
2015-09-15T01:59:50.040Z,95228
2015-09-15T02:00:08.556Z,95222
2015-09-15T02:00:27.071Z,95220
2015-09-15T02:00:45.558Z,95231
2015-09-15T02:01:03.964Z,95225
2015-09-15T02:01:22.370Z,95228
2015-09-15T02:01:40.933Z,95234
2015-09-15T02:01:59.310Z,95229
2015-09-15T02:02:17.700Z,95229
2015-09-15T02:02:36.497Z,95240
2015-09-15T02:02:55.062Z,95228
2015-09-15T02:03:13.624Z,95228
2015-09-15T02:03:32.249Z,95228
2015-09-15T02:03:50.892Z,95234
2015-09-15T02:04:09.532Z,95233
2015-09-15T02:04:28.032Z,95233
2015-09-15T02:04:46.407Z,95228
2015-09-15T02:05:04.830Z,95233
2015-09-15T02:05:23.268Z,95220
2015-09-15T02:05:41.940Z,95225
2015-09-15T02:06:00.551Z,95219
2015-09-15T02:06:19.051Z,95222
2015-09-15T02:06:37.488Z,95227
2015-09-15T02:06:56.101Z,95222
2015-09-15T02:07:14.476Z,95219
2015-09-15T02:07:33.007Z,95225
2015-09-15T02:07:51.429Z,95223
2015-09-15T02:08:09.821Z,95223
2015-09-15T02:08:28.242Z,95212
2015-09-15T02:08:46.711Z,95223
2015-09-15T02:09:05.230Z,95228
2015-09-15T02:09:23.808Z,95226
2015-09-15T02:09:42.449Z,95223
2015-09-15T02:10:00.841Z,95220
2015-09-15T02:10:19.497Z,95222
2015-09-15T02:10:37.857Z,95227
2015-09-15T02:10:56.247Z,95233
2015-09-15T02:11:14.671Z,95222
2015-09-15T02:11:33.031Z,95228
2015-09-15T02:11:51.640Z,95225
2015-09-15T02:12:10.157Z,95242
2015-09-15T02:12:50.172Z,95239
2015-09-15T02:13:08.752Z,95239
2015-09-15T02:13:27.268Z,95239
2015-09-15T02:13:45.846Z,95240
2015-09-15T02:14:04.442Z,95242
2015-09-15T02:14:22.848Z,95242
2015-09-15T02:14:41.317Z,95245
2015-09-15T02:15:00.161Z,95248
2015-09-15T02:15:18.882Z,95237
2015-09-15T02:15:37.336Z,95251
2015-09-15T02:15:55.867Z,95248
2015-09-15T02:16:14.524Z,95242
2015-09-15T02:16:33.071Z,95242
2015-09-15T02:16:51.587Z,95231
2015-09-15T02:17:09.979Z,95242
2015-09-15T02:17:28.354Z,95245
2015-09-15T02:17:46.885Z,95242
2015-09-15T02:18:05.245Z,95239
2015-09-15T02:18:23.637Z,95240
2015-09-15T02:18:42.012Z,95231
2015-09-15T02:19:00.747Z,95237
2015-09-15T02:19:19.484Z,95245
2015-09-15T02:19:37.906Z,95245
2015-09-15T02:19:56.422Z,95237
2015-09-15T02:20:14.891Z,95237
2015-09-15T02:20:33.266Z,95245
2015-09-15T02:20:51.626Z,95242
2015-09-15T02:21:10.079Z,95239
2015-09-15T02:21:28.628Z,95242
2015-09-15T02:21:47.253Z,95236
2015-09-15T02:22:05.690Z,95233
2015-09-15T02:22:24.052Z,95228
2015-09-15T02:22:42.567Z,95219
2015-09-15T02:23:01.005Z,95230
2015-09-15T02:23:19.382Z,95236
2015-09-15T02:23:37.835Z,95225
2015-09-15T02:23:56.272Z,95222
2015-09-15T02:24:14.835Z,95222
2015-09-15T02:24:33.181Z,95222
2015-09-15T02:24:51.462Z,95237
2015-09-15T02:25:09.853Z,95231
2015-09-15T02:25:28.386Z,95234
2015-09-15T02:25:46.839Z,95232
2015-09-15T02:26:05.464Z,95226
2015-09-15T02:26:23.825Z,95232
2015-09-15T02:26:42.310Z,95229
2015-09-15T02:27:00.825Z,95240
2015-09-15T02:27:19.575Z,95235
2015-09-15T02:27:37.937Z,95237
2015-09-15T02:27:56.374Z,95237
2015-09-15T02:28:14.734Z,95234
2015-09-15T02:28:33.173Z,95237
2015-09-15T02:28:51.564Z,95234
2015-09-15T02:29:10.115Z,95231
2015-09-15T02:29:28.648Z,95229
2015-09-15T02:29:47.085Z,95231
2015-09-15T02:30:05.648Z,95225
2015-09-15T02:30:24.007Z,95222
2015-09-15T02:30:42.401Z,95236
2015-09-15T02:31:00.901Z,95225
2015-09-15T02:31:19.338Z,95233
2015-09-15T02:31:37.887Z,95234
2015-09-15T02:31:56.075Z,95228
2015-09-15T02:32:14.543Z,95234
2015-09-15T02:32:32.998Z,95234
2015-09-15T02:32:51.358Z,95245
2015-09-15T02:33:09.717Z,95245
2015-09-15T02:33:28.405Z,95239
2015-09-15T02:33:47.110Z,95233
2015-09-15T02:34:05.625Z,95252
2015-09-15T02:34:24.235Z,95236
2015-09-15T02:34:42.737Z,95239
2015-09-15T02:35:01.299Z,95237
2015-09-15T02:35:19.659Z,95237
2015-09-15T02:35:38.176Z,95237
2015-09-15T02:35:56.598Z,95245
2015-09-15T02:36:15.051Z,95237
2015-09-15T02:36:33.676Z,95237
2015-09-15T02:36:52.130Z,95237
2015-09-15T02:37:10.568Z,95239
2015-09-15T02:37:29.005Z,95239
2015-09-15T02:37:47.570Z,95239
2015-09-15T02:38:06.226Z,95239
2015-09-15T02:38:24.586Z,95245
2015-09-15T02:38:43.026Z,95248
2015-09-15T02:39:01.448Z,95243
2015-09-15T02:39:19.964Z,95245
2015-09-15T02:39:38.448Z,95246
2015-09-15T02:39:56.825Z,95246
2015-09-15T02:40:15.262Z,95246
2015-09-15T02:40:33.903Z,95252
2015-09-15T02:40:52.389Z,95252
2015-09-15T02:41:10.780Z,95246
2015-09-15T02:41:29.155Z,95246
2015-09-15T02:41:47.563Z,95244
2015-09-15T02:42:06.204Z,95246
2015-09-15T02:42:24.720Z,95244
2015-09-15T02:42:43.502Z,95249
2015-09-15T02:43:02.002Z,95258
2015-09-15T02:43:20.377Z,95244
2015-09-15T02:43:38.892Z,95241
2015-09-15T02:43:57.395Z,95235
2015-09-15T02:44:15.911Z,95249
2015-09-15T02:44:34.442Z,95235
2015-09-15T02:44:53.069Z,95235
2015-09-15T02:45:11.507Z,95235
2015-09-15T02:45:29.944Z,95232
2015-09-15T02:45:48.384Z,95232
2015-09-15T02:46:07.024Z,95238
2015-09-15T02:46:25.493Z,95227
2015-09-15T02:46:43.993Z,95218
2015-09-15T02:47:02.542Z,95229
2015-09-15T02:47:20.948Z,95229
2015-09-15T02:47:39.339Z,95227
2015-09-15T02:47:57.716Z,95229
2015-09-15T02:48:16.200Z,95224
2015-09-15T02:48:34.716Z,95226
2015-09-15T02:48:53.279Z,95229
2015-09-15T02:49:11.733Z,95223
2015-09-15T02:49:30.170Z,95223
2015-09-15T02:49:48.779Z,95226
2015-09-15T02:50:07.203Z,95229
2015-09-15T02:50:25.656Z,95232
2015-09-15T02:50:44.250Z,95224
2015-09-15T02:51:02.908Z,95231
2015-09-15T02:51:21.299Z,95229
2015-09-15T02:51:39.658Z,95237
2015-09-15T02:51:58.098Z,95240
2015-09-15T02:52:16.457Z,95235
2015-09-15T02:52:34.942Z,95237
2015-09-15T02:52:53.521Z,95243
2015-09-15T02:53:12.318Z,95237
2015-09-15T02:53:30.740Z,95245
2015-09-15T02:53:49.693Z,95235
2015-09-15T02:54:08.133Z,95240
2015-09-15T02:54:26.664Z,95240
2015-09-15T02:54:45.289Z,95234
2015-09-15T02:55:03.947Z,95237
2015-09-15T02:55:22.603Z,95226
2015-09-15T02:55:41.040Z,95224
2015-09-15T02:55:59.481Z,95223
2015-09-15T02:56:17.997Z,95220
2015-09-15T02:56:36.543Z,95221
2015-09-15T02:56:54.965Z,95221
2015-09-15T02:57:13.358Z,95212
2015-09-15T02:57:31.983Z,95210
2015-09-15T02:57:50.342Z,95216
2015-09-15T02:58:08.719Z,95221
2015-09-15T02:58:27.126Z,95221
2015-09-15T02:58:45.751Z,95221
2015-09-15T02:59:04.361Z,95215
2015-09-15T02:59:22.752Z,95218
2015-09-15T02:59:41.361Z,95213
2015-09-15T02:59:59.738Z,95213
2015-09-15T03:00:18.097Z,95210
2015-09-15T03:00:36.738Z,95218
2015-09-15T03:00:55.191Z,95215
2015-09-15T03:01:13.553Z,95215
2015-09-15T03:01:32.100Z,95218
2015-09-15T03:01:50.475Z,95209
2015-09-15T03:02:08.851Z,95215
2015-09-15T03:02:27.398Z,95212
2015-09-15T03:02:45.804Z,95218
2015-09-15T03:03:04.494Z,95218
2015-09-15T03:03:22.900Z,95218
2015-09-15T03:03:41.385Z,95218
2015-09-15T03:03:59.947Z,95215
2015-09-15T03:04:18.340Z,95218
2015-09-15T03:04:36.715Z,95218
2015-09-15T03:04:55.183Z,95215
2015-09-15T03:05:13.639Z,95224
2015-09-15T03:05:32.248Z,95219
2015-09-15T03:05:50.592Z,95219
2015-09-15T03:06:09.328Z,95208
2015-09-15T03:06:28.047Z,95221
2015-09-15T03:06:46.547Z,95216
2015-09-15T03:07:05.172Z,95221
2015-09-15T03:07:23.534Z,95224
2015-09-15T03:07:42.065Z,95221
2015-09-15T03:08:00.456Z,95227
2015-09-15T03:08:18.849Z,95215
2015-09-15T03:08:37.521Z,95213
2015-09-15T03:08:56.067Z,95210
2015-09-15T03:09:14.443Z,95216
2015-09-15T03:09:33.053Z,95210
2015-09-15T03:09:51.412Z,95216
2015-09-15T03:10:09.834Z,95213
2015-09-15T03:10:28.195Z,95218
2015-09-15T03:10:46.805Z,95213
2015-09-15T03:11:05.227Z,95218
2015-09-15T03:11:23.604Z,95204
2015-09-15T03:11:42.244Z,95213
2015-09-15T03:12:00.744Z,95205
2015-09-15T03:12:19.293Z,95208
2015-09-15T03:12:37.653Z,95203
2015-09-15T03:12:56.356Z,95208
2015-09-15T03:13:14.887Z,95208
2015-09-15T03:13:33.467Z,95218
2015-09-15T03:13:51.983Z,95207
2015-09-15T03:14:10.358Z,95215
2015-09-15T03:14:29.000Z,95220
2015-09-15T03:14:47.375Z,95221
2015-09-15T03:15:05.750Z,95210
2015-09-15T03:15:24.127Z,95213
2015-09-15T03:15:42.549Z,95213
2015-09-15T03:16:01.112Z,95213
2015-09-15T03:16:19.551Z,95216
2015-09-15T03:16:37.957Z,95204
2015-09-15T03:16:56.364Z,95212
2015-09-15T03:17:14.801Z,95213
2015-09-15T03:17:33.163Z,95210
2015-09-15T03:17:51.522Z,95207
2015-09-15T03:18:09.881Z,95207
2015-09-15T03:18:28.383Z,95197
2015-09-15T03:18:46.836Z,95204
2015-09-15T03:19:05.368Z,95207
2015-09-15T03:19:23.932Z,95201
2015-09-15T03:19:42.307Z,95201
2015-09-15T03:20:00.667Z,95193
2015-09-15T03:20:19.276Z,95193
2015-09-15T03:20:37.669Z,95198
2015-09-15T03:20:56.044Z,95184
2015-09-15T03:21:14.450Z,95203
2015-09-15T03:21:32.966Z,95198
2015-09-15T03:21:51.341Z,95196
2015-09-15T03:22:09.966Z,95210
2015-09-15T03:22:28.484Z,95204
2015-09-15T03:22:46.906Z,95207
2015-09-15T03:23:05.265Z,95213
2015-09-15T03:23:23.734Z,95208
2015-09-15T03:23:42.237Z,95202
2015-09-15T03:24:00.596Z,95207
2015-09-15T03:24:19.003Z,95205
2015-09-15T03:24:37.505Z,95189
2015-09-15T03:24:55.864Z,95204
2015-09-15T03:25:14.223Z,95196
2015-09-15T03:25:32.865Z,95191
2015-09-15T03:25:51.240Z,95185
2015-09-15T03:26:09.818Z,95193
2015-09-15T03:26:28.334Z,95194
2015-09-15T03:26:46.976Z,95191
2015-09-15T03:27:05.383Z,95191
2015-09-15T03:27:23.586Z,95189
2015-09-15T03:27:42.120Z,95189
2015-09-15T03:28:00.792Z,95186
2015-09-15T03:28:19.417Z,95189
2015-09-15T03:28:37.996Z,95189
2015-09-15T03:28:56.371Z,95190
2015-09-15T03:29:14.652Z,95193
2015-09-15T03:29:33.184Z,95184
2015-09-15T03:29:51.639Z,95178
2015-09-15T03:30:10.139Z,95189
2015-09-15T03:30:28.748Z,95189
2015-09-15T03:30:47.359Z,95192
2015-09-15T03:31:05.766Z,95189
2015-09-15T03:31:24.266Z,95192
2015-09-15T03:31:42.768Z,95196
2015-09-15T03:32:01.205Z,95190
2015-09-15T03:32:19.736Z,95195
2015-09-15T03:32:38.190Z,95195
2015-09-15T03:32:56.567Z,95198
2015-09-15T03:33:15.051Z,95202
2015-09-15T03:33:33.457Z,95204
2015-09-15T03:33:51.959Z,95194
2015-09-15T03:34:10.506Z,95189
2015-09-15T03:34:29.022Z,95197
2015-09-15T03:34:47.446Z,95197
2015-09-15T03:35:05.821Z,95194
2015-09-15T03:35:24.414Z,95191
2015-09-15T03:35:42.867Z,95191
2015-09-15T03:36:01.432Z,95191
2015-09-15T03:36:20.026Z,95197
2015-09-15T03:36:38.401Z,95195
2015-09-15T03:36:56.778Z,95195
2015-09-15T03:37:15.309Z,95190
2015-09-15T03:37:34.012Z,95187
2015-09-15T03:37:52.389Z,95193
2015-09-15T03:38:10.764Z,95192
2015-09-15T03:38:29.123Z,95195
2015-09-15T03:38:47.594Z,95189
2015-09-15T03:39:06.282Z,95198
2015-09-15T03:39:24.704Z,95198
2015-09-15T03:39:43.172Z,95206
2015-09-15T03:40:01.831Z,95195
2015-09-15T03:40:20.487Z,95189
2015-09-15T03:40:38.846Z,95192
2015-09-15T03:40:57.489Z,95197
2015-09-15T03:41:15.848Z,95204
2015-09-15T03:41:34.348Z,95197
2015-09-15T03:41:52.944Z,95183
2015-09-15T03:42:11.397Z,95197
2015-09-15T03:42:30.585Z,95183
2015-09-15T03:42:49.288Z,95192
2015-09-15T03:43:07.915Z,95184
2015-09-15T03:43:26.321Z,95178
2015-09-15T03:43:44.743Z,95183
2015-09-15T03:44:03.244Z,95194
2015-09-15T03:44:21.759Z,95178
2015-09-15T03:44:40.166Z,95172
2015-09-15T03:44:58.731Z,95177
2015-09-15T03:45:17.403Z,95175
2015-09-15T03:45:35.794Z,95186
2015-09-15T03:45:54.278Z,95178
2015-09-15T03:46:12.904Z,95172
2015-09-15T03:46:31.529Z,95178
2015-09-15T03:46:50.185Z,95180
2015-09-15T03:47:08.720Z,95172
2015-09-15T03:47:27.329Z,95170
2015-09-15T03:47:45.704Z,95167
2015-09-15T03:48:04.253Z,95170
2015-09-15T03:48:22.690Z,95179
2015-09-15T03:48:41.159Z,95178
2015-09-15T03:48:59.800Z,95162
2015-09-15T03:49:18.520Z,95167
2015-09-15T03:49:36.880Z,95167
2015-09-15T03:49:55.270Z,95172
2015-09-15T03:50:13.647Z,95172
2015-09-15T03:50:32.022Z,95175
2015-09-15T03:50:50.491Z,95177
2015-09-15T03:51:09.102Z,95174
2015-09-15T03:51:27.836Z,95172
2015-09-15T03:51:46.445Z,95183
2015-09-15T03:52:04.948Z,95189
2015-09-15T03:52:23.417Z,95174
2015-09-15T03:52:41.870Z,95177
2015-09-15T03:53:00.230Z,95179
2015-09-15T03:53:18.793Z,95182
2015-09-15T03:53:37.481Z,95171
2015-09-15T03:53:55.887Z,95180
2015-09-15T03:54:14.327Z,95174
2015-09-15T03:54:32.702Z,95180
2015-09-15T03:54:51.265Z,95177
2015-09-15T03:55:09.782Z,95180
2015-09-15T03:55:28.157Z,95171
2015-09-15T03:55:46.532Z,95177
2015-09-15T03:56:04.892Z,95180
2015-09-15T03:56:23.268Z,95174
2015-09-15T03:56:41.612Z,95171
2015-09-15T03:56:59.987Z,95174
2015-09-15T03:57:18.379Z,95165
2015-09-15T03:57:36.785Z,95168
2015-09-15T03:57:55.426Z,95167
2015-09-15T03:58:13.959Z,95173
2015-09-15T03:58:32.319Z,95173